createdAt,value
2023-07-26T00:00:07.296Z,6.87
2023-07-26T00:02:34.261Z,6.10
2023-07-26T00:05:01.226Z,7.47
2023-07-26T00:07:28.138Z,6.62
2023-07-26T00:09:55.072Z,6.22
2023-07-26T00:12:22.021Z,9.55
2023-07-26T00:14:48.918Z,5.90
2023-07-26T00:17:15.777Z,6.97
2023-07-26T00:19:42.726Z,8.27
2023-07-26T00:22:09.591Z,6.70
2023-07-26T00:24:36.598Z,7.62
2023-07-26T00:27:03.718Z,7.00
2023-07-26T00:29:30.622Z,6.28
2023-07-26T00:31:57.523Z,9.18
2023-07-26T00:34:24.400Z,7.97
2023-07-26T00:36:51.313Z,6.37
2023-07-26T00:39:19.712Z,6.18
2023-07-26T00:41:46.672Z,6.32
2023-07-26T00:44:13.546Z,7.97
2023-07-26T00:46:40.882Z,7.12
2023-07-26T00:49:08.768Z,8.40
2023-07-26T00:51:37.206Z,6.97
2023-07-26T00:54:05.282Z,6.25
2023-07-26T00:56:32.462Z,5.95
2023-07-26T00:58:59.772Z,6.12
2023-07-26T01:01:27.970Z,5.25
2023-07-26T01:03:54.901Z,5.25
2023-07-26T01:06:35.231Z,6.75
2023-07-26T01:09:33.388Z,6.28
2023-07-26T01:15:03.950Z,8.27
2023-07-26T01:17:31.252Z,7.95
2023-07-26T01:19:58.253Z,6.40
2023-07-26T01:22:25.208Z,7.72
2023-07-26T01:24:52.132Z,5.40
2023-07-26T01:27:19.136Z,5.75
2023-07-26T01:29:46.080Z,5.95
2023-07-26T01:32:15.983Z,5.80
2023-07-26T01:34:42.929Z,9.70
2023-07-26T01:37:10.165Z,5.62
2023-07-26T01:39:37.130Z,5.90
2023-07-26T01:42:04.577Z,6.90
2023-07-26T01:44:38.350Z,5.55
2023-07-26T01:47:05.616Z,5.85
2023-07-26T01:49:32.642Z,5.72
2023-07-26T01:51:59.660Z,9.23
2023-07-26T01:54:26.584Z,6.65
2023-07-26T01:56:53.477Z,7.43
2023-07-26T01:59:20.361Z,6.00
2023-07-26T02:01:47.300Z,7.87
2023-07-26T02:04:14.275Z,6.65
2023-07-26T02:06:41.207Z,6.22
2023-07-26T02:09:09.864Z,5.78
2023-07-26T02:11:36.812Z,5.43
2023-07-26T02:14:03.712Z,5.15
2023-07-26T02:16:30.636Z,4.20
2023-07-26T02:18:57.570Z,5.45
2023-07-26T02:21:24.613Z,5.65
2023-07-26T02:23:51.513Z,4.57
2023-07-26T02:26:18.412Z,3.95
2023-07-26T02:28:45.303Z,4.53
2023-07-26T02:31:12.253Z,4.60
2023-07-26T02:33:39.144Z,5.28
2023-07-26T02:36:06.105Z,4.95
2023-07-26T02:38:33.067Z,6.03
2023-07-26T02:40:59.959Z,8.48
2023-07-26T02:43:38.997Z,4.37
2023-07-26T02:46:07.854Z,2.33
2023-07-26T02:48:34.862Z,4.37
2023-07-26T02:51:01.797Z,3.55
2023-07-26T02:53:28.728Z,3.83
2023-07-26T02:55:55.710Z,3.20
2023-07-26T02:58:22.601Z,3.78
2023-07-26T03:00:53.674Z,2.75
2023-07-26T03:03:20.677Z,2.62
2023-07-26T03:05:47.844Z,3.20
2023-07-26T03:08:14.759Z,4.97
2023-07-26T03:10:41.665Z,2.53
2023-07-26T03:13:08.580Z,1.80
2023-07-26T03:15:40.041Z,5.22
2023-07-26T03:18:07.062Z,2.35
2023-07-26T03:20:34.024Z,4.20
2023-07-26T03:23:00.934Z,3.60
2023-07-26T03:25:27.832Z,3.78
2023-07-26T03:27:54.909Z,3.10
2023-07-26T03:30:21.751Z,3.10
2023-07-26T03:32:48.719Z,2.65
2023-07-26T03:35:15.715Z,2.53
2023-07-26T03:37:42.641Z,3.45
2023-07-26T03:40:10.189Z,2.87
2023-07-26T03:42:37.094Z,3.42
2023-07-26T03:45:04.236Z,4.30
2023-07-26T03:47:31.192Z,3.45
2023-07-26T03:49:58.153Z,2.50
2023-07-26T03:52:25.070Z,3.35
2023-07-26T03:54:52.179Z,3.87
2023-07-26T03:57:19.101Z,3.30
2023-07-26T03:59:46.010Z,2.55
2023-07-26T04:02:12.982Z,2.70
2023-07-26T04:04:39.939Z,2.92
2023-07-26T04:07:06.947Z,1.48
2023-07-26T04:09:34.073Z,1.80
2023-07-26T04:12:01.028Z,2.70
2023-07-26T04:14:28.026Z,3.97
2023-07-26T04:16:54.946Z,3.25
2023-07-26T04:19:21.856Z,2.58
2023-07-26T04:21:48.807Z,2.45
2023-07-26T04:24:15.838Z,3.53
2023-07-26T04:26:42.802Z,2.62
2023-07-26T04:29:09.681Z,6.47
2023-07-26T04:31:36.608Z,3.15
2023-07-26T04:34:03.566Z,2.55
2023-07-26T04:36:30.864Z,2.90
2023-07-26T04:38:57.969Z,2.70
2023-07-26T04:41:24.942Z,3.37
2023-07-26T04:43:51.887Z,1.90
2023-07-26T04:46:18.815Z,4.28
2023-07-26T04:48:45.819Z,2.28
2023-07-26T04:51:12.813Z,2.12
2023-07-26T04:53:39.733Z,1.65
2023-07-26T04:56:06.644Z,3.70
2023-07-26T04:58:33.710Z,2.72
2023-07-26T05:01:00.682Z,2.97
2023-07-26T05:03:27.663Z,2.40
2023-07-26T05:05:54.595Z,2.92
2023-07-26T05:08:23.120Z,1.70
2023-07-26T05:10:53.351Z,2.12
2023-07-26T05:13:20.606Z,2.53
2023-07-26T05:15:50.645Z,2.72
2023-07-26T05:18:17.515Z,5.10
2023-07-26T05:20:44.412Z,2.25
2023-07-26T05:23:11.323Z,2.95
2023-07-26T05:25:41.042Z,1.35
2023-07-26T05:28:08.007Z,2.30
2023-07-26T05:30:42.521Z,2.25
2023-07-26T05:33:09.912Z,2.00
2023-07-26T05:35:36.797Z,1.62
2023-07-26T05:38:03.990Z,1.90
2023-07-26T05:40:30.868Z,2.40
2023-07-26T05:43:00.359Z,3.75
2023-07-26T05:45:27.734Z,2.20
2023-07-26T05:47:54.683Z,2.15
2023-07-26T05:50:24.975Z,2.42
2023-07-26T05:52:52.541Z,1.95
2023-07-26T05:55:19.570Z,2.10
2023-07-26T05:57:46.489Z,3.12
2023-07-26T06:00:15.322Z,1.65
2023-07-26T06:02:42.779Z,1.30
2023-07-26T06:05:10.162Z,3.70
2023-07-26T06:07:40.182Z,1.87
2023-07-26T06:10:07.277Z,3.45
2023-07-26T06:12:34.305Z,2.65
2023-07-26T06:15:01.256Z,2.55
2023-07-26T06:17:31.008Z,3.15
2023-07-26T06:19:57.930Z,1.75
2023-07-26T06:22:24.788Z,1.77
2023-07-26T06:24:51.790Z,2.08
2023-07-26T06:27:30.589Z,1.95
2023-07-26T06:29:58.443Z,3.20
2023-07-26T06:32:25.394Z,1.98
2023-07-26T06:34:52.350Z,1.80
2023-07-26T06:37:30.233Z,1.83
2023-07-26T06:39:57.156Z,3.20
2023-07-26T06:42:24.135Z,1.85
2023-07-26T06:44:51.057Z,4.12
2023-07-26T06:47:18.965Z,3.15
2023-07-26T06:49:45.862Z,2.33
2023-07-26T06:52:12.855Z,2.45
2023-07-26T06:54:39.767Z,3.17
2023-07-26T06:57:07.564Z,1.83
2023-07-26T06:59:34.460Z,4.28
2023-07-26T07:02:01.360Z,2.28
2023-07-26T07:04:28.387Z,3.47
2023-07-26T07:06:55.293Z,2.75
2023-07-26T07:09:25.400Z,4.55
2023-07-26T07:11:52.392Z,6.03
2023-07-26T07:14:20.347Z,3.50
2023-07-26T07:16:47.352Z,4.10
2023-07-26T07:19:14.260Z,3.25
2023-07-26T07:21:42.587Z,3.87
2023-07-26T07:24:09.491Z,3.50
2023-07-26T07:26:36.379Z,3.12
2023-07-26T07:29:07.025Z,3.60
2023-07-26T07:31:34.252Z,5.40
2023-07-26T07:34:01.498Z,4.00
2023-07-26T07:36:28.430Z,3.50
2023-07-26T07:38:56.341Z,4.72
2023-07-26T07:41:23.237Z,3.28
2023-07-26T07:43:50.136Z,6.05
2023-07-26T07:46:17.124Z,4.85
2023-07-26T07:48:44.105Z,5.10
2023-07-26T07:51:10.987Z,2.55
2023-07-26T07:53:38.040Z,3.53
2023-07-26T07:56:05.097Z,5.18
2023-07-26T07:58:37.856Z,4.30
2023-07-26T08:01:04.781Z,3.28
2023-07-26T08:03:31.736Z,4.37
2023-07-26T08:05:58.699Z,4.20
2023-07-26T08:08:25.685Z,3.60
2023-07-26T08:10:52.548Z,4.62
2023-07-26T08:13:19.449Z,3.33
2023-07-26T08:15:46.554Z,5.32
2023-07-26T08:18:13.573Z,3.12
2023-07-26T08:20:40.503Z,3.00
2023-07-26T08:23:07.770Z,2.22
2023-07-26T08:25:35.129Z,4.43
2023-07-26T08:28:03.066Z,4.35
2023-07-26T08:30:30.010Z,2.95
2023-07-26T08:32:57.010Z,3.50
2023-07-26T08:35:24.185Z,4.62
2023-07-26T08:37:54.056Z,2.97
2023-07-26T08:40:22.331Z,2.87
2023-07-26T08:42:49.426Z,1.77
2023-07-26T08:45:17.498Z,3.85
2023-07-26T08:47:44.656Z,3.62
2023-07-26T08:50:12.019Z,2.62
2023-07-26T08:52:39.102Z,1.98
2023-07-26T08:55:07.429Z,3.35
2023-07-26T08:57:34.522Z,2.58
2023-07-26T09:00:01.569Z,4.12
2023-07-26T09:02:29.049Z,2.87
2023-07-26T09:04:57.768Z,2.50
2023-07-26T09:07:30.728Z,4.03
2023-07-26T09:09:57.802Z,3.00
2023-07-26T09:12:27.188Z,3.12
2023-07-26T09:14:55.619Z,4.07
2023-07-26T09:17:22.748Z,3.72
2023-07-26T09:19:53.001Z,3.15
2023-07-26T09:22:20.127Z,3.30
2023-07-26T09:24:51.106Z,4.47
2023-07-26T09:27:18.509Z,4.22
2023-07-26T09:29:55.494Z,3.17
2023-07-26T09:32:29.737Z,3.97
2023-07-26T09:35:01.217Z,3.80
2023-07-26T09:37:28.614Z,4.35
2023-07-26T09:39:55.628Z,5.30
2023-07-26T09:42:23.896Z,6.00
2023-07-26T09:44:59.939Z,4.93
2023-07-26T09:52:37.445Z,7.95
2023-07-26T09:55:09.515Z,3.33
2023-07-26T09:57:39.662Z,4.30
2023-07-26T10:00:08.752Z,4.18
2023-07-26T10:02:36.739Z,5.50
2023-07-26T10:05:04.733Z,4.62
2023-07-26T10:07:32.710Z,4.25
2023-07-26T10:10:02.442Z,5.78
2023-07-26T10:12:31.139Z,4.53
2023-07-26T10:14:58.107Z,4.93
2023-07-26T10:17:27.994Z,5.70
2023-07-26T10:19:56.334Z,5.15
2023-07-26T10:22:24.192Z,4.82
2023-07-26T10:24:51.295Z,7.05
2023-07-26T10:27:18.324Z,5.22
2023-07-26T10:29:45.965Z,4.80
2023-07-26T10:32:13.318Z,5.95
2023-07-26T10:34:41.359Z,4.60
2023-07-26T10:37:21.222Z,6.28
2023-07-26T10:39:50.459Z,4.25
2023-07-26T10:42:27.407Z,4.93
2023-07-26T10:45:01.276Z,5.37
2023-07-26T10:47:28.313Z,6.80
2023-07-26T10:49:56.579Z,5.60
2023-07-26T10:52:23.480Z,5.87
2023-07-26T10:54:52.226Z,4.50
2023-07-26T10:57:28.462Z,3.90
2023-07-26T11:00:12.230Z,5.20
2023-07-26T11:02:49.545Z,4.30
2023-07-26T11:05:24.024Z,4.93
2023-07-26T11:07:59.885Z,5.55
2023-07-26T11:10:37.028Z,4.78
2023-07-26T11:16:11.377Z,4.07
2023-07-26T11:18:29.870Z,5.82
2023-07-26T11:20:57.127Z,5.35
2023-07-26T11:23:29.074Z,5.57
2023-07-26T11:26:00.753Z,4.05
2023-07-26T11:28:32.714Z,5.95
2023-07-26T11:31:00.464Z,4.40
2023-07-26T11:33:31.239Z,4.07
2023-07-26T11:35:59.127Z,6.95
2023-07-26T11:38:26.306Z,7.03
2023-07-26T11:40:59.660Z,6.80
2023-07-26T11:43:27.992Z,10.70
2023-07-26T11:45:56.998Z,5.45
2023-07-26T11:48:25.861Z,9.23
2023-07-26T11:50:56.772Z,5.65
2023-07-26T11:56:08.273Z,6.75
2023-07-26T11:58:35.833Z,4.37
2023-07-26T12:01:05.170Z,6.12
2023-07-26T12:03:33.129Z,6.35
2023-07-26T12:06:03.547Z,5.10
2023-07-26T12:08:32.577Z,7.62
2023-07-26T12:11:03.797Z,6.65
2023-07-26T12:13:34.052Z,5.57
2023-07-26T12:16:03.345Z,5.25
2023-07-26T12:18:30.844Z,5.32
2023-07-26T12:21:10.307Z,5.75
2023-07-26T12:23:53.104Z,7.57
2023-07-26T12:26:30.838Z,5.32
2023-07-26T12:28:59.895Z,5.15
2023-07-26T12:31:28.969Z,5.35
2023-07-26T12:34:00.247Z,5.57
2023-07-26T12:36:32.086Z,5.85
2023-07-26T12:38:59.557Z,4.18
2023-07-26T12:41:27.427Z,5.57
2023-07-26T12:43:57.909Z,3.70
2023-07-26T12:46:25.054Z,4.78
2023-07-26T12:48:58.826Z,3.53
2023-07-26T12:51:27.050Z,3.80
2023-07-26T12:53:54.863Z,3.12
2023-07-26T12:56:22.395Z,4.25
2023-07-26T12:59:04.768Z,4.37
2023-07-26T13:01:33.744Z,4.82
2023-07-26T13:04:00.867Z,6.15
2023-07-26T13:06:27.855Z,4.80
2023-07-26T13:08:54.839Z,4.20
2023-07-26T13:11:21.712Z,4.10
2023-07-26T13:13:48.595Z,6.28
2023-07-26T13:16:15.553Z,4.35
2023-07-26T13:18:42.514Z,3.72
2023-07-26T13:21:09.449Z,5.05
2023-07-26T13:23:36.308Z,4.78
2023-07-26T13:26:03.830Z,5.43
2023-07-26T13:28:30.762Z,6.55
2023-07-26T13:30:57.652Z,4.18
2023-07-26T13:33:27.136Z,4.53
2023-07-26T13:35:55.700Z,4.35
2023-07-26T13:38:22.782Z,5.28
2023-07-26T13:40:49.688Z,4.40
2023-07-26T13:43:16.584Z,5.43
2023-07-26T13:45:44.848Z,6.75
2023-07-26T13:48:14.169Z,4.90
2023-07-26T13:50:41.111Z,7.40
2023-07-26T13:53:08.018Z,4.57
2023-07-26T13:55:35.102Z,4.28
2023-07-26T13:58:01.986Z,5.30
2023-07-26T14:00:28.904Z,6.22
2023-07-26T14:02:55.948Z,6.80
2023-07-26T14:05:23.140Z,5.45
2023-07-26T14:07:50.071Z,4.85
2023-07-26T14:10:17.049Z,6.30
2023-07-26T14:12:44.035Z,5.20
2023-07-26T14:15:10.964Z,4.53
2023-07-26T14:17:38.057Z,7.25
2023-07-26T14:20:05.731Z,4.47
2023-07-26T14:22:32.651Z,7.12
2023-07-26T14:24:59.556Z,4.62
2023-07-26T14:27:26.455Z,4.97
2023-07-26T14:29:53.379Z,4.68
2023-07-26T14:32:20.298Z,6.97
2023-07-26T14:34:47.232Z,3.75
2023-07-26T14:37:14.188Z,5.53
2023-07-26T14:39:41.117Z,5.05
2023-07-26T14:42:08.374Z,5.55
2023-07-26T14:44:35.250Z,4.43
2023-07-26T14:47:02.204Z,7.72
2023-07-26T14:49:29.210Z,7.95
2023-07-26T14:51:56.131Z,8.27
2023-07-26T14:54:23.187Z,6.28
2023-07-26T14:57:04.604Z,5.97
2023-07-26T14:59:36.921Z,6.20
2023-07-26T15:02:03.926Z,6.40
2023-07-26T15:04:31.050Z,5.85
2023-07-26T15:06:58.083Z,5.97
2023-07-26T15:09:25.027Z,6.70
2023-07-26T15:11:51.906Z,8.15
2023-07-26T15:14:18.766Z,7.20
2023-07-26T15:16:45.692Z,5.60
2023-07-26T15:19:12.629Z,8.40
2023-07-26T15:21:39.508Z,8.60
2023-07-26T15:24:06.486Z,7.72
2023-07-26T15:26:33.526Z,8.18
2023-07-26T15:29:00.429Z,6.70
2023-07-26T15:31:28.544Z,5.47
2023-07-26T15:33:55.589Z,7.07
2023-07-26T15:36:22.485Z,8.43
2023-07-26T15:38:49.418Z,5.75
2023-07-26T15:41:17.081Z,8.10
2023-07-26T15:46:37.049Z,5.65
2023-07-26T15:49:03.163Z,8.52
2023-07-26T15:51:30.642Z,7.68
2023-07-26T15:53:58.310Z,5.78
2023-07-26T15:56:25.693Z,7.78
2023-07-26T15:58:52.878Z,6.60
2023-07-26T16:01:24.291Z,7.78
2023-07-26T16:03:53.705Z,9.35
2023-07-26T16:06:21.126Z,5.60
2023-07-26T16:11:18.615Z,6.90
2023-07-26T16:13:45.620Z,7.85
2023-07-26T16:19:12.412Z,8.23
2023-07-26T16:23:58.964Z,6.32
2023-07-26T16:26:25.871Z,7.32
2023-07-26T16:28:52.753Z,6.65
2023-07-26T16:31:19.715Z,8.43
2023-07-26T16:33:46.676Z,5.00
2023-07-26T16:36:13.600Z,5.10
2023-07-26T16:38:40.528Z,6.35
2023-07-26T16:41:07.429Z,9.32
2023-07-26T16:43:34.325Z,5.35
2023-07-26T16:46:01.289Z,7.25
2023-07-26T16:48:28.299Z,5.28
2023-07-26T16:50:55.220Z,6.37
2023-07-26T16:53:22.184Z,7.30
2023-07-26T16:55:49.140Z,6.85
2023-07-26T16:58:16.032Z,7.57
2023-07-26T17:00:43.575Z,6.87
2023-07-26T17:03:10.775Z,5.90
2023-07-26T17:05:37.997Z,6.30
2023-07-26T17:08:05.391Z,8.30
2023-07-26T17:10:32.446Z,7.50
2023-07-26T17:12:59.329Z,6.60
2023-07-26T17:15:26.261Z,5.32
2023-07-26T17:17:53.215Z,4.93
2023-07-26T17:20:20.132Z,5.62
2023-07-26T17:22:47.098Z,6.80
2023-07-26T17:25:14.009Z,6.15
2023-07-26T17:27:41.696Z,6.28
2023-07-26T17:30:09.588Z,5.97
2023-07-26T17:32:36.556Z,9.13
2023-07-26T17:35:03.620Z,6.43
2023-07-26T17:37:30.508Z,4.85
2023-07-26T17:39:57.411Z,6.55
2023-07-26T17:42:24.307Z,5.78
2023-07-26T17:44:51.738Z,6.28
2023-07-26T17:47:19.071Z,4.90
2023-07-26T17:49:46.008Z,4.80
2023-07-26T17:52:12.969Z,4.93
2023-07-26T17:54:39.849Z,4.18
2023-07-26T17:57:07.010Z,7.10
2023-07-26T17:59:39.285Z,4.18
2023-07-26T18:02:07.435Z,6.37
2023-07-26T18:04:34.691Z,4.53
2023-07-26T18:07:01.855Z,4.90
2023-07-26T18:09:28.960Z,4.22
2023-07-26T18:11:56.497Z,3.47
2023-07-26T18:14:24.767Z,4.85
2023-07-26T18:16:52.206Z,2.83
2023-07-26T18:19:20.687Z,5.60
2023-07-26T18:21:47.661Z,4.85
2023-07-26T18:24:14.547Z,4.53
2023-07-26T18:26:42.110Z,3.58
2023-07-26T18:29:09.377Z,3.55
2023-07-26T18:31:40.488Z,3.65
2023-07-26T18:34:09.149Z,3.35
2023-07-26T18:36:36.393Z,4.03
2023-07-26T18:39:03.847Z,4.50
2023-07-26T18:41:31.143Z,5.10
2023-07-26T18:43:58.144Z,3.45
2023-07-26T18:46:25.619Z,2.78
2023-07-26T18:48:52.871Z,2.05
2023-07-26T18:51:19.827Z,3.72
2023-07-26T18:53:46.794Z,2.45
2023-07-26T18:56:13.671Z,4.40
2023-07-26T18:58:41.067Z,3.55
2023-07-26T19:01:08.016Z,2.10
2023-07-26T19:03:34.989Z,4.57
2023-07-26T19:06:02.183Z,2.90
2023-07-26T19:08:29.231Z,2.33
2023-07-26T19:10:56.192Z,1.87
2023-07-26T19:13:23.223Z,9.90
2023-07-26T19:16:00.534Z,2.60
2023-07-26T19:18:27.525Z,3.28
2023-07-26T19:21:06.303Z,1.85
2023-07-26T19:23:33.902Z,1.87
2023-07-26T19:26:02.369Z,2.20
2023-07-26T19:28:29.574Z,2.37
2023-07-26T19:30:56.495Z,2.35
2023-07-26T19:33:23.733Z,2.92
2023-07-26T19:35:57.553Z,3.37
2023-07-26T19:38:26.231Z,3.70
2023-07-26T19:41:10.372Z,4.78
2023-07-26T19:43:38.379Z,3.17
2023-07-26T19:46:07.626Z,3.50
2023-07-26T19:48:34.813Z,2.37
2023-07-26T19:51:01.878Z,2.85
2023-07-26T19:53:28.833Z,1.85
2023-07-26T19:55:56.047Z,4.50
2023-07-26T19:58:22.990Z,2.67
2023-07-26T20:00:49.942Z,2.40
2023-07-26T20:03:16.948Z,3.22
2023-07-26T20:05:50.821Z,2.45
2023-07-26T20:08:17.982Z,2.03
2023-07-26T20:10:46.116Z,2.55
2023-07-26T20:13:16.336Z,2.25
2023-07-26T20:15:44.329Z,2.10
2023-07-26T20:18:12.126Z,2.08
2023-07-26T20:20:39.280Z,2.83
2023-07-26T20:23:06.687Z,3.62
2023-07-26T20:25:34.750Z,2.25
2023-07-26T20:28:01.791Z,2.47
2023-07-26T20:30:28.746Z,3.83
2023-07-26T20:32:55.667Z,6.78
2023-07-26T20:35:22.798Z,3.58
2023-07-26T20:37:50.568Z,2.67
2023-07-26T20:40:17.494Z,2.83
2023-07-26T20:42:44.355Z,3.90
2023-07-26T20:45:11.418Z,2.55
2023-07-26T20:47:38.360Z,3.87
2023-07-26T20:50:05.999Z,2.80
2023-07-26T20:52:32.994Z,3.30
2023-07-26T20:55:00.707Z,2.78
2023-07-26T20:57:28.898Z,3.28
2023-07-26T20:59:55.908Z,2.85
2023-07-26T21:02:23.594Z,2.80
2023-07-26T21:04:50.857Z,2.08
2023-07-26T21:07:18.079Z,3.25
2023-07-26T21:09:44.992Z,4.40
2023-07-26T21:12:12.027Z,3.22
2023-07-26T21:14:38.942Z,3.47
2023-07-26T21:17:06.053Z,2.50
2023-07-26T21:19:33.524Z,2.35
2023-07-26T21:22:00.616Z,3.58
2023-07-26T21:24:27.559Z,3.40
2023-07-26T21:26:54.588Z,2.85
2023-07-26T21:29:21.499Z,3.95
2023-07-26T21:31:48.508Z,2.55
2023-07-26T21:34:15.440Z,3.00
2023-07-26T21:36:42.376Z,2.97
2023-07-26T21:39:10.868Z,3.72
2023-07-26T21:41:37.840Z,3.35
2023-07-26T21:44:04.838Z,5.28
2023-07-26T21:46:32.057Z,5.55
2023-07-26T21:48:59.297Z,3.55
2023-07-26T21:51:26.221Z,2.97
2023-07-26T21:53:53.169Z,4.07
2023-07-26T21:56:20.111Z,3.17
2023-07-26T21:58:47.022Z,1.92
2023-07-26T22:01:13.940Z,3.10
2023-07-26T22:03:41.086Z,2.95
2023-07-26T22:06:07.996Z,4.07
2023-07-26T22:08:34.910Z,2.65
2023-07-26T22:11:01.863Z,2.90
2023-07-26T22:13:30.122Z,2.35
2023-07-26T22:15:57.083Z,3.17
2023-07-26T22:18:24.132Z,1.50
2023-07-26T22:21:15.607Z,3.80
2023-07-26T22:23:45.059Z,2.33
2023-07-26T22:26:15.772Z,1.98
2023-07-26T22:28:57.144Z,1.83
2023-07-26T22:31:24.061Z,2.08
2023-07-26T22:33:50.971Z,1.90
2023-07-26T22:36:17.924Z,2.25
2023-07-26T22:38:44.796Z,3.72
2023-07-26T22:41:11.720Z,2.87
2023-07-26T22:43:38.667Z,2.80
2023-07-26T22:46:05.936Z,2.40
2023-07-26T22:48:32.959Z,2.45
2023-07-26T22:50:59.853Z,4.32
2023-07-26T22:53:26.803Z,2.70
2023-07-26T22:55:53.722Z,1.67
2023-07-26T22:58:20.728Z,2.72
2023-07-26T23:00:47.718Z,2.67
2023-07-26T23:03:14.756Z,1.45
2023-07-26T23:05:41.697Z,4.18
2023-07-26T23:08:08.624Z,1.75
2023-07-26T23:10:35.542Z,2.40
2023-07-26T23:13:02.418Z,3.22
2023-07-26T23:15:29.313Z,4.57
2023-07-26T23:17:56.250Z,3.25
2023-07-26T23:20:23.184Z,2.33
2023-07-26T23:22:52.118Z,1.98
2023-07-26T23:25:19.000Z,2.22
2023-07-26T23:27:47.911Z,2.25
2023-07-26T23:30:14.937Z,2.60
2023-07-26T23:32:41.858Z,3.00
2023-07-26T23:35:09.404Z,2.20
2023-07-26T23:37:36.294Z,2.78
2023-07-26T23:40:03.760Z,2.92
2023-07-26T23:42:30.682Z,2.78
2023-07-26T23:44:57.581Z,1.75
2023-07-26T23:47:24.473Z,5.45
2023-07-26T23:49:51.357Z,2.70
2023-07-26T23:52:18.307Z,1.85
2023-07-26T23:54:45.193Z,6.30
2023-07-26T23:57:12.095Z,3.55
2023-07-26T23:59:38.989Z,3.70
